Time;durP1;ratioP1;P1;durP2;ratioP2;P2;SDS_P1;SDS_P2;PMS_P1;PMS_P2;Temp;Humidity;BMP_temperature;BMP_pressure;BME280_temperature;BME280_humidity;BME280_pressure;Samples;Min_cycle;Max_cycle;Signal;HPM_P1;HPM_P2
2021/09/23 00:00:11;;;;;;;;;;;;;;;22.00;30.98;97917.16;4906125;29;636;-79
2021/09/23 00:05:11;;;;;;;;;;;;;;;21.95;31.29;97920.56;4905250;29;962;-79
2021/09/23 00:07:37;;;;;;;;;;;;;;;21.89;31.06;97909.00;4905301;29;945;-79
2021/09/23 00:10:03;;;;;;;;;;;;;;;21.96;31.17;97924.97;4905963;29;696;-79
2021/09/23 00:12:29;;;;;;;;;;;;;;;21.98;30.87;97922.50;4905265;29;652;-79
2021/09/23 00:14:54;;;;;;;;;;;;;;;22.02;31.00;97918.31;4905887;29;724;-79
2021/09/23 00:17:19;;;;;;;;;;;;;;;22.00;31.14;97928.50;4905722;29;1966;-79
2021/09/23 00:19:45;;;;;;;;;;;;;;;21.96;30.99;97927.81;4904837;29;1122;-80
2021/09/23 00:22:10;;;;;;;;;;;;;;;21.93;30.87;97920.22;4905487;29;856;-79
2021/09/23 00:24:36;;;;;;;;;;;;;;;21.88;31.05;97921.56;4905248;29;876;-79
2021/09/23 00:27:02;;;;;;;;;;;;;;;22.06;30.94;97915.38;4905652;29;628;-79
2021/09/23 00:29:27;;;;;;;;;;;;;;;22.02;30.97;97920.34;4905660;29;664;-79
2021/09/23 00:31:53;;;;;;;;;;;;;;;22.03;30.83;97911.41;4905063;29;1237;-79
2021/09/23 00:34:18;;;;;;;;;;;;;;;22.01;30.87;97918.75;4904881;29;1052;-79
2021/09/23 00:36:45;;;;;;;;;;;;;;;21.96;30.90;97913.66;4905018;29;1968;-79
2021/09/23 00:39:10;;;;;;;;;;;;;;;21.98;30.86;97899.84;4905532;29;997;-79
2021/09/23 00:41:36;;;;;;;;;;;;;;;21.90;30.55;97895.63;4905388;29;672;-79
2021/09/23 00:44:14;;;;;;;;;;;;;;;21.92;30.69;97898.81;4905282;29;1123;-79
2021/09/23 00:46:39;;;;;;;;;;;;;;;21.83;30.91;97897.41;4904689;29;636;-79
2021/09/23 00:49:05;;;;;;;;;;;;;;;21.84;30.86;97893.34;4905095;29;1072;-79
2021/09/23 00:51:30;;;;;;;;;;;;;;;21.84;30.63;97892.53;4904182;29;879;-79
2021/09/23 00:53:57;;;;;;;;;;;;;;;21.88;30.91;97889.63;4889200;29;1155;-79
2021/09/23 00:56:23;;;;;;;;;;;;;;;21.88;30.91;97892.44;4904178;29;2060;-79
2021/09/23 00:58:48;;;;;;;;;;;;;;;21.75;30.97;97896.03;4904331;29;900;-79
2021/09/23 01:01:14;;;;;;;;;;;;;;;21.79;30.87;97893.88;4904584;29;1174;-78
2021/09/23 01:03:39;;;;;;;;;;;;;;;21.98;30.40;97897.00;4904369;29;1202;-78
2021/09/23 01:06:29;;;;;;;;;;;;;;;21.92;30.49;97893.16;4905028;29;962;-79
2021/09/23 01:08:55;;;;;;;;;;;;;;;21.81;30.55;97894.25;4905127;29;676;-79
2021/09/23 01:11:22;;;;;;;;;;;;;;;21.84;30.87;97887.69;4904553;29;1281;-79
2021/09/23 01:13:50;;;;;;;;;;;;;;;21.85;30.73;97885.63;4889506;29;1194;-79
2021/09/23 01:16:28;;;;;;;;;;;;;;;21.94;30.56;97896.31;4904517;29;1903;-80
2021/09/23 01:19:08;;;;;;;;;;;;;;;21.85;30.98;97889.25;4904195;29;1205;-79
2021/09/23 01:21:34;;;;;;;;;;;;;;;21.93;30.49;97889.06;4904156;29;1264;-79
2021/09/23 01:24:03;;;;;;;;;;;;;;;21.99;30.67;97881.59;4889140;29;1300;-79
2021/09/23 01:26:29;;;;;;;;;;;;;;;21.92;30.96;97890.31;4904491;29;1280;-79
2021/09/23 01:29:01;;;;;;;;;;;;;;;22.08;30.61;97878.91;4904611;29;1176;-79
2021/09/23 01:31:35;;;;;;;;;;;;;;;22.02;30.90;97880.69;4904409;29;1217;-79
2021/09/23 01:34:02;;;;;;;;;;;;;;;21.99;30.65;97878.75;4904161;29;1185;-79
2021/09/23 01:36:28;;;;;;;;;;;;;;;21.93;30.95;97889.06;4904102;29;1973;-79
2021/09/23 01:38:53;;;;;;;;;;;;;;;22.22;31.65;97894.69;4904771;29;927;-79
2021/09/23 01:41:19;;;;;;;;;;;;;;;22.33;31.72;97886.66;4904383;29;1151;-80
2021/09/23 01:43:45;;;;;;;;;;;;;;;22.42;32.09;97885.97;4904121;29;1475;-79
2021/09/23 01:46:11;;;;;;;;;;;;;;;22.50;32.29;97885.28;4906671;29;675;-79
2021/09/23 01:48:48;;;;;;;;;;;;;;;22.20;31.92;97886.63;4907628;29;1234;-79
2021/09/23 01:51:13;;;;;;;;;;;;;;;21.98;32.17;97886.47;4907670;29;1309;-79
2021/09/23 01:53:39;;;;;;;;;;;;;;;22.14;31.76;97888.44;4891969;29;967;-79
2021/09/23 01:56:04;;;;;;;;;;;;;;;22.03;32.06;97877.41;4908386;29;1895;-79
2021/09/23 01:58:30;;;;;;;;;;;;;;;22.04;31.87;97883.88;4907310;29;910;-79
2021/09/23 02:00:55;;;;;;;;;;;;;;;22.12;31.75;97896.59;4907795;29;1194;-80
2021/09/23 02:03:21;;;;;;;;;;;;;;;22.09;31.58;97897.47;4907542;29;1201;-79
2021/09/23 02:05:59;;;;;;;;;;;;;;;22.04;31.38;97883.88;4907316;29;970;-79
2021/09/23 02:08:24;;;;;;;;;;;;;;;22.05;31.47;97891.13;4908203;29;935;-79
2021/09/23 02:10:50;;;;;;;;;;;;;;;22.01;31.18;97896.88;4908079;29;639;-79
2021/09/23 02:13:16;;;;;;;;;;;;;;;21.91;31.29;97900.03;4891746;29;1066;-79
2021/09/23 02:15:41;;;;;;;;;;;;;;;22.00;31.04;97894.50;4907589;29;1961;-79
2021/09/23 02:18:08;;;;;;;;;;;;;;;22.04;30.85;97883.88;4907238;29;1265;-79
2021/09/23 02:20:34;;;;;;;;;;;;;;;22.14;31.61;97893.31;4907132;29;1314;-79
2021/09/23 02:23:01;;;;;;;;;;;;;;;22.34;31.82;97891.88;4907341;29;1295;-79
2021/09/23 02:25:32;;;;;;;;;;;;;;;22.56;31.68;97891.19;4907471;29;1306;-78
2021/09/23 02:27:58;;;;;;;;;;;;;;;22.63;32.01;97890.94;4907253;29;1146;-79
2021/09/23 02:30:24;;;;;;;;;;;;;;;22.29;31.65;97886.75;4907077;29;656;-79
2021/09/23 02:32:50;;;;;;;;;;;;;;;22.02;31.96;97880.69;4891452;29;1341;-79
2021/09/23 02:35:15;;;;;;;;;;;;;;;22.01;31.80;97884.75;4891359;29;1107;-79
2021/09/23 02:37:41;;;;;;;;;;;;;;;22.06;31.80;97887.81;4907048;29;1977;-79
2021/09/23 02:40:09;;;;;;;;;;;;;;;21.95;31.83;97898.69;4907020;29;1128;-79
2021/09/23 02:42:34;;;;;;;;;;;;;;;21.97;31.96;97895.44;4907182;29;1252;-79
2021/09/23 02:45:00;;;;;;;;;;;;;;;21.95;31.93;97892.22;4907049;29;1141;-80
2021/09/23 02:47:26;;;;;;;;;;;;;;;22.07;31.35;97900.78;4906614;29;1198;-79
2021/09/23 02:49:52;;;;;;;;;;;;;;;22.00;31.56;97894.50;4906706;29;1106;-79
2021/09/23 02:52:17;;;;;;;;;;;;;;;21.93;31.73;97897.56;4906932;29;1126;-79
2021/09/23 02:54:43;;;;;;;;;;;;;;;21.87;31.50;97902.19;4906814;29;1445;-80
2021/09/23 02:57:08;;;;;;;;;;;;;;;21.91;31.40;97902.88;4907060;29;1899;-79
2021/09/23 02:59:34;;;;;;;;;;;;;;;21.91;31.24;97903.66;4906941;29;1237;-79
2021/09/23 03:01:59;;;;;;;;;;;;;;;21.96;31.06;97905.16;4906402;29;1238;-79
2021/09/23 03:04:24;;;;;;;;;;;;;;;21.96;30.90;97905.94;4906140;29;888;-79
2021/09/23 03:06:50;;;;;;;;;;;;;;;21.98;30.87;97909.13;4907151;29;995;-79
2021/09/23 03:09:15;;;;;;;;;;;;;;;22.00;30.92;97908.69;4906712;29;1191;-79
2021/09/23 03:11:42;;;;;;;;;;;;;;;21.84;31.12;97913.16;4890771;29;716;-78
2021/09/23 03:14:08;;;;;;;;;;;;;;;21.96;30.61;97910.81;4906357;29;1150;-78
2021/09/23 03:16:34;;;;;;;;;;;;;;;22.12;31.62;97919.25;4890510;29;1895;-79
2021/09/23 03:19:00;;;;;;;;;;;;;;;22.42;31.76;97928.47;4906106;29;1111;-80
2021/09/23 03:21:25;;;;;;;;;;;;;;;22.53;31.61;97926.09;4906248;29;1174;-79
2021/09/23 03:23:51;;;;;;;;;;;;;;;22.44;31.58;97923.19;4906515;29;1235;-79
2021/09/23 03:26:16;;;;;;;;;;;;;;;22.09;31.91;97926.59;4906277;29;1241;-79
2021/09/23 03:28:41;;;;;;;;;;;;;;;22.05;31.78;97922.28;4890645;29;1319;-79
2021/09/23 03:31:07;;;;;;;;;;;;;;;21.96;31.76;97939.13;4906347;29;1026;-79
2021/09/23 03:33:32;;;;;;;;;;;;;;;22.08;31.45;97941.22;4905824;29;1106;-79
2021/09/23 03:35:58;;;;;;;;;;;;;;;21.95;31.88;97937.56;4906378;29;1895;-79
2021/09/23 03:38:40;;;;;;;;;;;;;;;22.06;31.40;97940.88;4905717;29;657;-79
2021/09/23 03:41:05;;;;;;;;;;;;;;;21.91;31.88;97948.19;4905913;29;1209;-80
2021/09/23 03:43:31;;;;;;;;;;;;;;;21.83;32.00;97948.41;4906398;29;648;-80
2021/09/23 03:45:58;;;;;;;;;;;;;;;21.78;31.92;97945.31;4905589;29;1224;-79
2021/09/23 03:48:24;;;;;;;;;;;;;;;21.87;31.83;97953.19;4905305;29;1304;-79
2021/09/23 03:50:53;;;;;;;;;;;;;;;21.99;31.33;97955.25;4905818;29;1122;-79
2021/09/23 03:53:18;;;;;;;;;;;;;;;22.06;31.25;97961.50;4905762;29;1172;-79
2021/09/23 03:55:44;;;;;;;;;;;;;;;21.93;31.39;97960.69;4905884;29;1236;-79
2021/09/23 03:58:09;;;;;;;;;;;;;;;21.87;31.52;97964.50;4905327;29;1988;-79
2021/09/23 04:00:35;;;;;;;;;;;;;;;21.97;31.16;97974.75;4905346;29;1273;-79
2021/09/23 04:03:00;;;;;;;;;;;;;;;22.00;31.25;97968.16;4905178;29;1475;-79
2021/09/23 04:05:26;;;;;;;;;;;;;;;21.90;31.20;97974.94;4906015;29;876;-79
2021/09/23 04:07:51;;;;;;;;;;;;;;;21.74;31.54;97973.75;4905070;29;1361;-79
2021/09/23 04:10:18;;;;;;;;;;;;;;;21.84;31.31;97983.97;4905951;29;609;-79
2021/09/23 04:12:44;;;;;;;;;;;;;;;21.81;31.36;97984.88;4890444;29;1239;-79
2021/09/23 04:15:09;;;;;;;;;;;;;;;21.76;31.52;97988.25;4905580;29;889;-79
2021/09/23 04:17:35;;;;;;;;;;;;;;;21.89;30.93;97996.00;4905491;29;1968;-79
2021/09/23 04:20:00;;;;;;;;;;;;;;;21.73;31.06;97989.16;4905835;29;932;-79
2021/09/23 04:22:26;;;;;;;;;;;;;;;21.75;31.05;97988.69;4905238;29;1266;-79
2021/09/23 04:24:52;;;;;;;;;;;;;;;21.84;31.38;97988.84;4905318;29;1330;-79
2021/09/23 04:27:18;;;;;;;;;;;;;;;22.50;31.27;97993.03;4905257;29;1139;-79
2021/09/23 04:29:44;;;;;;;;;;;;;;;22.64;31.31;97988.97;4889324;29;1107;-79
2021/09/23 04:32:12;;;;;;;;;;;;;;;22.72;31.63;98000.88;4889432;29;1353;-79
2021/09/23 04:34:47;;;;;;;;;;;;;;;22.26;31.65;97992.53;4904724;29;1301;-80
2021/09/23 04:37:13;;;;;;;;;;;;;;;22.19;31.89;98006.13;4905010;29;1966;-79
2021/09/23 04:39:41;;;;;;;;;;;;;;;22.06;31.91;98006.81;4905187;29;1288;-79
2021/09/23 04:42:10;;;;;;;;;;;;;;;22.06;31.79;98006.81;4904722;29;989;-79
2021/09/23 04:44:36;;;;;;;;;;;;;;;22.22;31.52;98010.88;4889064;29;1324;-79
2021/09/23 04:47:04;;;;;;;;;;;;;;;22.13;31.87;98014.38;4904544;29;1669;-79
2021/09/23 04:49:30;;;;;;;;;;;;;;;21.94;32.05;98026.63;4904593;29;1308;-79
2021/09/23 04:51:57;;;;;;;;;;;;;;;21.84;32.04;98017.19;4889620;29;1318;-79
2021/09/23 04:54:23;;;;;;;;;;;;;;;21.97;31.88;98028.56;4905255;29;687;-79
2021/09/23 04:56:48;;;;;;;;;;;;;;;22.08;31.65;98027.03;4904618;29;1981;-80
2021/09/23 04:59:14;;;;;;;;;;;;;;;21.97;31.61;98020.09;4906603;29;2340;-79
2021/09/23 05:01:42;;;;;;;;;;;;;;;22.04;31.41;98032.00;4900165;29;1151;-80
2021/09/23 05:04:08;;;;;;;;;;;;;;;22.01;31.62;98032.09;4901945;29;1390;-79
2021/09/23 05:06:33;;;;;;;;;;;;;;;21.98;31.74;98033.00;4904662;29;1105;-79
2021/09/23 05:08:59;;;;;;;;;;;;;;;21.96;31.68;98035.47;4904734;29;1264;-79
2021/09/23 05:11:34;;;;;;;;;;;;;;;22.02;31.47;98033.66;4905094;29;638;-80
2021/09/23 05:13:59;;;;;;;;;;;;;;;21.85;31.86;98041.41;4904820;29;1069;-79
2021/09/23 05:16:25;;;;;;;;;;;;;;;21.74;31.87;98044.53;4903976;29;1891;-79
2021/09/23 05:18:50;;;;;;;;;;;;;;;21.93;31.46;98044.88;4905099;29;1038;-79
2021/09/23 05:21:16;;;;;;;;;;;;;;;21.89;31.32;98047.00;4907160;29;866;-79
2021/09/23 05:23:41;;;;;;;;;;;;;;;21.93;31.16;98047.69;4908942;29;747;-79
2021/09/23 05:26:06;;;;;;;;;;;;;;;21.90;31.13;98048.59;4908896;29;620;-79
2021/09/23 05:28:32;;;;;;;;;;;;;;;21.78;31.31;98048.09;4908871;29;676;-79
2021/09/23 05:30:57;;;;;;;;;;;;;;;21.83;31.22;98053.22;4907847;29;1008;-79
2021/09/23 05:33:23;;;;;;;;;;;;;;;21.81;31.19;98050.03;4907793;29;931;-79
2021/09/23 05:35:48;;;;;;;;;;;;;;;22.10;31.76;98060.56;4908803;29;978;-80
2021/09/23 05:38:14;;;;;;;;;;;;;;;22.32;31.94;98061.59;4908450;29;1907;-79
2021/09/23 05:40:39;;;;;;;;;;;;;;;22.50;31.86;98057.47;4908932;29;651;-79
2021/09/23 05:43:05;;;;;;;;;;;;;;;22.56;31.49;98049.97;4907911;29;816;-79
2021/09/23 05:53:51;;;;;;;;;;;;;;;21.75;32.04;98054.63;4886678;29;1019;-79
2021/09/23 05:56:17;;;;;;;;;;;;;;;21.88;31.84;98065.25;4853073;29;1904;-79
2021/09/23 05:58:42;;;;;;;;;;;;;;;21.97;31.57;98059.75;4866704;29;1512;-79
2021/09/23 06:01:07;;;;;;;;;;;;;;;22.05;31.32;98061.13;4854984;29;1857;-79
2021/09/23 06:03:33;;;;;;;;;;;;;;;21.88;31.67;98062.41;4851945;29;952;-79
2021/09/23 06:05:58;;;;;;;;;;;;;;;22.00;31.45;98070.16;4852117;29;957;-79
2021/09/23 06:08:24;;;;;;;;;;;;;;;22.07;31.46;98079.28;4852337;29;681;-80
2021/09/23 06:10:49;;;;;;;;;;;;;;;21.92;31.72;98080.13;4852167;29;720;-79
2021/09/23 06:13:15;;;;;;;;;;;;;;;21.95;31.54;98084.88;4852103;29;654;-79
2021/09/23 06:15:41;;;;;;;;;;;;;;;21.98;31.77;98078.31;4851993;29;945;-80
2021/09/23 06:18:06;;;;;;;;;;;;;;;21.89;31.53;98081.00;4852228;29;1972;-79
2021/09/23 06:20:31;;;;;;;;;;;;;;;22.01;31.56;98085.91;4852088;29;1035;-79
2021/09/23 06:22:57;;;;;;;;;;;;;;;21.90;31.84;98082.56;4852011;29;657;-79
2021/09/23 06:25:22;;;;;;;;;;;;;;;21.91;31.66;98078.50;4852115;29;657;-79
2021/09/23 06:27:48;;;;;;;;;;;;;;;21.63;32.03;98080.84;4866697;29;637;-79
2021/09/23 06:30:13;;;;;;;;;;;;;;;21.90;31.51;98082.56;4851594;29;933;-79
2021/09/23 06:32:39;;;;;;;;;;;;;;;21.88;31.74;98082.25;4866041;29;913;-79
2021/09/23 06:35:05;;;;;;;;;;;;;;;21.90;31.24;98085.41;4866783;29;1249;-79
2021/09/23 06:37:31;;;;;;;;;;;;;;;21.99;31.15;98082.75;4866596;29;1974;-80
2021/09/23 06:39:56;;;;;;;;;;;;;;;21.94;31.24;98081.25;4851794;29;716;-79
2021/09/23 06:42:22;;;;;;;;;;;;;;;22.02;31.25;98090.34;4851891;29;669;-80
2021/09/23 06:44:47;;;;;;;;;;;;;;;21.94;31.10;98091.78;4866316;29;971;-79
2021/09/23 06:47:13;;;;;;;;;;;;;;;22.00;31.95;98090.00;4851408;29;930;-80
2021/09/23 06:49:38;;;;;;;;;;;;;;;22.24;32.18;98102.72;4851739;29;996;-79
2021/09/23 06:52:04;;;;;;;;;;;;;;;22.40;32.39;98099.06;4851567;29;609;-79
2021/09/23 06:54:29;;;;;;;;;;;;;;;22.57;31.63;98108.28;4865341;29;999;-79
2021/09/23 06:56:55;;;;;;;;;;;;;;;22.32;31.80;98100.47;4903556;29;1976;-79
2021/09/23 06:59:22;;;;;;;;;;;;;;;22.07;31.80;98098.28;4903189;29;1255;-79
2021/09/23 07:01:51;;;;;;;;;;;;;;;22.14;31.33;98105.84;4903304;29;1304;-79
2021/09/23 07:04:32;;;;;;;;;;;;;;;21.99;31.88;98109.03;4901538;29;883;-79
2021/09/23 07:07:23;;;;;;;;;;;;;;;22.06;31.61;98108.84;4887203;29;1011;-79
2021/09/23 07:09:50;;;;;;;;;;;;;;;22.04;31.85;98099.19;4903474;29;1381;-79
2021/09/23 07:12:23;;;;;;;;;;;;;;;21.97;31.80;98105.88;4888676;29;684;-80
2021/09/23 07:14:48;;;;;;;;;;;;;;;21.97;31.73;98105.88;4902983;29;1170;-79
2021/09/23 07:17:14;;;;;;;;;;;;;;;22.03;31.60;98109.75;4903020;29;1895;-78
2021/09/23 07:19:39;;;;;;;;;;;;;;;21.95;31.61;98108.31;4888047;29;1072;-79
2021/09/23 07:22:05;;;;;;;;;;;;;;;21.84;32.01;98114.28;4888173;29;629;-79
2021/09/23 07:24:30;;;;;;;;;;;;;;;21.85;31.86;98118.69;4888035;29;672;-79
2021/09/23 07:26:56;;;;;;;;;;;;;;;21.89;31.67;98115.00;4902878;29;697;-79
2021/09/23 07:29:22;;;;;;;;;;;;;;;22.07;31.63;98109.63;4887890;29;1079;-79
2021/09/23 07:31:48;;;;;;;;;;;;;;;22.03;31.39;98106.13;4887139;29;1139;-79
2021/09/23 07:34:13;;;;;;;;;;;;;;;22.03;31.37;98108.94;4887354;29;1161;-79
2021/09/23 07:36:39;;;;;;;;;;;;;;;21.98;31.30;98112.31;4902853;29;1907;-79
2021/09/23 07:39:06;;;;;;;;;;;;;;;22.01;31.21;98122.75;4887110;29;735;-79
2021/09/23 07:41:33;;;;;;;;;;;;;;;21.91;31.36;98118.16;4902660;29;781;-79
2021/09/23 07:43:58;;;;;;;;;;;;;;;21.89;31.24;98115.00;4901500;29;937;-79
2021/09/23 07:46:23;;;;;;;;;;;;;;;21.82;31.59;98116.78;4902598;29;1241;-79
2021/09/23 07:48:53;;;;;;;;;;;;;;;21.92;31.16;98108.44;4902242;29;1238;-79
2021/09/23 07:51:20;;;;;;;;;;;;;;;22.06;31.11;98113.72;4902409;29;656;-79
2021/09/23 07:53:45;;;;;;;;;;;;;;;22.08;31.71;98105.56;4886988;29;1193;-80
2021/09/23 07:56:11;;;;;;;;;;;;;;;22.38;32.13;98106.41;4902717;29;1978;-79
2021/09/23 07:58:36;;;;;;;;;;;;;;;22.48;31.96;98108.13;4886304;29;1142;-79
2021/09/23 08:01:02;;;;;;;;;;;;;;;22.44;32.21;98113.13;4886654;29;1154;-79
2021/09/23 08:03:29;;;;;;;;;;;;;;;22.38;31.83;98112.84;4887292;29;976;-79
2021/09/23 08:05:55;;;;;;;;;;;;;;;22.15;31.98;98113.91;4902307;29;1073;-79
2021/09/23 08:08:20;;;;;;;;;;;;;;;22.18;31.50;98109.41;4887232;29;680;-79
2021/09/23 08:10:46;;;;;;;;;;;;;;;22.04;31.68;98110.53;4902291;29;1118;-79
2021/09/23 08:13:12;;;;;;;;;;;;;;;22.01;32.10;98108.59;4886980;29;956;-79
2021/09/23 08:15:38;;;;;;;;;;;;;;;22.06;31.68;98110.88;4901992;29;1355;-80
2021/09/23 08:18:26;;;;;;;;;;;;;;;21.98;31.70;98120.81;4869369;29;1307;-79
2021/09/23 08:21:07;;;;;;;;;;;;;;;21.96;31.87;98103.47;4902133;29;1166;-79
2021/09/23 08:23:33;;;;;;;;;;;;;;;22.06;31.77;98108.03;4902201;29;1275;-80
2021/09/23 08:25:59;;;;;;;;;;;;;;;22.16;31.48;98117.53;4901878;29;586;-79
2021/09/23 08:28:26;;;;;;;;;;;;;;;22.03;31.60;98120.28;4901657;29;1167;-79
2021/09/23 08:30:52;;;;;;;;;;;;;;;21.92;31.53;98119.78;4901723;29;1181;-79
2021/09/23 08:33:18;;;;;;;;;;;;;;;22.14;31.23;98115.16;4887205;29;968;-79
2021/09/23 08:35:44;;;;;;;;;;;;;;;22.05;31.33;98126.28;4886402;29;1335;-79
2021/09/23 08:38:11;;;;;;;;;;;;;;;22.18;31.00;98115.88;4886787;29;1903;-79
2021/09/23 08:40:38;;;;;;;;;;;;;;;22.12;31.03;98117.63;4901701;29;1175;-79
2021/09/23 08:43:03;;;;;;;;;;;;;;;22.07;31.24;98121.78;4886432;29;1165;-79
2021/09/23 08:45:28;;;;;;;;;;;;;;;22.16;30.67;98115.50;4901519;29;1313;-79
2021/09/23 08:47:54;;;;;;;;;;;;;;;22.10;30.88;98120.09;4901435;29;1174;-80
2021/09/23 08:50:22;;;;;;;;;;;;;;;22.21;30.98;98114.94;4886310;29;1158;-80
2021/09/23 08:52:49;;;;;;;;;;;;;;;22.04;30.93;98121.88;4901609;29;1191;-79
2021/09/23 08:55:22;;;;;;;;;;;;;;;21.97;30.99;98111.53;4885734;29;1178;-79
2021/09/23 08:57:49;;;;;;;;;;;;;;;21.85;31.07;98110.19;4885729;29;1911;-79
2021/09/23 09:00:15;;;;;;;;;;;;;;;22.02;30.92;98101.66;4901333;29;1185;-79
2021/09/23 09:02:41;;;;;;;;;;;;;;;21.95;30.74;98101.88;4901394;29;1176;-79
2021/09/23 09:05:27;;;;;;;;;;;;;;;21.91;30.92;98101.94;4886100;29;1050;-79
2021/09/23 09:08:18;;;;;;;;;;;;;;;21.98;30.79;98095.31;4885870;29;1301;-79
2021/09/23 09:11:04;;;;;;;;;;;;;;;22.00;30.53;98099.28;4886071;29;1288;-79
2021/09/23 09:13:34;;;;;;;;;;;;;;;21.95;30.98;98101.88;4900976;29;1362;-79
2021/09/23 09:16:06;;;;;;;;;;;;;;;22.08;30.22;98111.25;4886014;29;1899;-79
2021/09/23 09:18:31;;;;;;;;;;;;;;;22.03;30.63;98106.13;4901381;29;1362;-79
2021/09/23 09:20:58;;;;;;;;;;;;;;;21.95;30.74;98105.50;4885852;29;1336;-79
2021/09/23 09:23:25;;;;;;;;;;;;;;;21.96;30.71;98109.13;4885924;29;1194;-79
2021/09/23 09:25:51;;;;;;;;;;;;;;;22.28;30.24;98114.78;4900586;29;750;-79
2021/09/23 09:28:17;;;;;;;;;;;;;;;22.50;31.28;98112.13;4901047;29;1149;-79
2021/09/23 09:30:43;;;;;;;;;;;;;;;22.59;31.43;98122.81;4885426;29;1115;-79
2021/09/23 09:33:09;;;;;;;;;;;;;;;22.63;31.28;98112.16;4901373;29;1185;-79
2021/09/23 09:35:37;;;;;;;;;;;;;;;22.42;31.53;98112.75;4901286;29;1166;-79
2021/09/23 09:38:08;;;;;;;;;;;;;;;22.17;31.49;98113.44;4901091;29;1903;-79
2021/09/23 09:40:35;;;;;;;;;;;;;;;22.10;31.59;98117.25;4901279;29;1610;-79
2021/09/23 09:43:02;;;;;;;;;;;;;;;22.03;31.12;98115.41;4901134;29;1193;-79
2021/09/23 09:45:28;;;;;;;;;;;;;;;22.10;31.37;98118.06;4885360;29;1190;-79
2021/09/23 09:47:56;;;;;;;;;;;;;;;22.10;31.21;98108.75;4885558;29;1143;-79
2021/09/23 09:50:23;;;;;;;;;;;;;;;22.02;31.22;98122.31;4900917;29;667;-79
2021/09/23 09:52:49;;;;;;;;;;;;;;;21.96;31.04;98132.59;4900937;29;675;-79
2021/09/23 09:55:15;;;;;;;;;;;;;;;21.92;30.84;98120.56;4885443;29;1281;-79
2021/09/23 09:57:44;;;;;;;;;;;;;;;21.91;30.99;98132.31;4885644;29;1986;-79
2021/09/23 10:00:10;;;;;;;;;;;;;;;21.96;30.50;98120.47;4885228;29;1123;-79
2021/09/23 10:02:44;;;;;;;;;;;;;;;21.81;30.56;98123.69;4886005;29;952;-79
2021/09/23 10:05:16;;;;;;;;;;;;;;;21.88;30.39;98127.56;4885503;29;1292;-79
2021/09/23 10:07:46;;;;;;;;;;;;;;;22.05;30.39;98129.13;4903427;29;597;-79
2021/09/23 10:10:12;;;;;;;;;;;;;;;22.60;30.22;98119.53;4904063;29;663;-79
2021/09/23 10:12:38;;;;;;;;;;;;;;;22.65;30.76;98121.03;4906111;29;1375;-79
2021/09/23 10:15:04;;;;;;;;;;;;;;;22.77;30.74;98117.41;4926207;29;1154;-79
2021/09/23 10:17:30;;;;;;;;;;;;;;;22.26;31.24;98125.75;4926103;29;1978;-79
2021/09/23 10:19:57;;;;;;;;;;;;;;;22.03;31.48;98115.41;4926372;29;1240;-81
2021/09/23 10:22:22;;;;;;;;;;;;;;;21.95;31.14;98138.69;4910473;29;1263;-82
2021/09/23 10:24:48;;;;;;;;;;;;;;;22.05;31.00;98129.13;4926733;29;1020;-81
2021/09/23 10:29:59;;;;;;;;;;;;;;;21.98;30.69;98129.31;4912167;29;2406;-80
2021/09/23 10:32:25;;;;;;;;;;;;;;;21.97;30.95;98133.41;4891749;29;1313;-79
2021/09/23 10:34:51;;;;;;;;;;;;;;;21.84;30.93;98119.94;4891813;29;1328;-79
2021/09/23 10:37:17;;;;;;;;;;;;;;;21.92;30.61;98125.44;4906718;29;1915;-79
2021/09/23 10:39:43;;;;;;;;;;;;;;;22.01;30.51;98111.41;4891249;29;1535;-79
2021/09/23 10:42:13;;;;;;;;;;;;;;;22.07;30.25;98120.97;4906898;29;1145;-79
2021/09/23 10:44:38;;;;;;;;;;;;;;;21.67;31.18;98123.25;4891940;29;1162;-79
2021/09/23 10:47:05;;;;;;;;;;;;;;;21.97;30.65;98119.25;4907103;29;1184;-79
2021/09/23 10:49:31;;;;;;;;;;;;;;;21.94;30.36;98134.28;4906967;29;679;-79
2021/09/23 10:51:56;;;;;;;;;;;;;;;22.09;31.06;98124.16;4907286;29;640;-79
2021/09/23 10:54:23;;;;;;;;;;;;;;;22.44;30.83;98119.59;4906506;29;1291;-79
2021/09/23 10:56:49;;;;;;;;;;;;;;;22.65;30.68;98120.22;4891347;29;1892;-79
2021/09/23 10:59:17;;;;;;;;;;;;;;;22.44;30.72;98127.31;4891579;29;1260;-79
2021/09/23 11:01:43;;;;;;;;;;;;;;;22.19;30.81;98123.13;4891214;29;1314;-79
2021/09/23 11:04:09;;;;;;;;;;;;;;;22.09;30.79;98118.50;4890954;29;1283;-79
2021/09/23 11:06:35;;;;;;;;;;;;;;;22.03;30.72;98115.41;4891342;29;1147;-80
2021/09/23 11:09:17;;;;;;;;;;;;;;;21.97;30.77;98119.25;4906456;29;863;-79
2021/09/23 11:11:47;;;;;;;;;;;;;;;21.96;30.67;98123.28;4906379;29;1165;-79
2021/09/23 11:14:13;;;;;;;;;;;;;;;21.97;30.86;98122.06;4906603;29;1217;-79
2021/09/23 11:16:43;;;;;;;;;;;;;;;21.89;30.65;98127.13;4891170;29;1923;-79
2021/09/23 11:19:09;;;;;;;;;;;;;;;21.88;30.82;98124.72;4890918;29;1254;-79
2021/09/23 11:21:36;;;;;;;;;;;;;;;21.97;30.54;98117.19;4890605;29;1303;-79
2021/09/23 11:24:01;;;;;;;;;;;;;;;21.82;30.35;98130.13;4905864;29;1238;-79
2021/09/23 11:26:27;;;;;;;;;;;;;;;21.91;30.47;98121.78;4890217;29;1248;-80
2021/09/23 11:28:54;;;;;;;;;;;;;;;21.85;30.39;98123.56;4906052;29;1025;-79
2021/09/23 11:31:20;;;;;;;;;;;;;;;21.87;30.34;98123.16;4906303;29;1252;-79
2021/09/23 11:33:50;;;;;;;;;;;;;;;22.12;30.64;98117.63;4906211;29;1291;-79
2021/09/23 11:36:15;;;;;;;;;;;;;;;22.50;30.62;98119.84;4906063;29;1906;-79
2021/09/23 11:38:43;;;;;;;;;;;;;;;22.64;30.22;98116.59;4890506;29;1252;-80
2021/09/23 11:41:09;;;;;;;;;;;;;;;22.45;30.50;98114.72;4906259;29;828;-80
2021/09/23 11:43:38;;;;;;;;;;;;;;;22.12;30.89;98105.50;4906025;29;975;-79
2021/09/23 11:46:03;;;;;;;;;;;;;;;22.17;30.32;98102.91;4906458;29;636;-79
2021/09/23 11:48:35;;;;;;;;;;;;;;;22.09;30.63;98090.97;4906014;29;1351;-79
2021/09/23 11:51:02;;;;;;;;;;;;;;;22.24;30.41;98090.59;4905886;29;1296;-80
2021/09/23 11:53:29;;;;;;;;;;;;;;;22.12;30.71;98089.28;4906067;29;1030;-80
2021/09/23 11:56:04;;;;;;;;;;;;;;;21.99;30.66;98091.25;4905387;29;1158;-79
2021/09/23 11:58:38;;;;;;;;;;;;;;;22.19;30.30;98094.78;4905801;29;1209;-79
2021/09/23 12:01:05;;;;;;;;;;;;;;;22.27;30.05;98095.34;4905668;29;1255;-79
2021/09/23 12:03:35;;;;;;;;;;;;;;;22.18;30.50;98092.41;4905643;29;1314;-79
2021/09/23 12:06:00;;;;;;;;;;;;;;;22.08;30.56;98094.25;4905684;29;1278;-79
2021/09/23 12:08:29;;;;;;;;;;;;;;;22.14;30.47;98108.69;4905320;29;1117;-79
2021/09/23 12:10:55;;;;;;;;;;;;;;;22.02;30.60;98108.16;4890044;29;1397;-79
2021/09/23 12:13:36;;;;;;;;;;;;;;;22.07;30.16;98101.13;4905565;29;1196;-80
2021/09/23 12:16:04;;;;;;;;;;;;;;;22.07;29.97;98103.97;4905235;29;1288;-79
2021/09/23 12:18:30;;;;;;;;;;;;;;;22.03;30.25;98097.63;4905275;29;2028;-79
2021/09/23 12:20:57;;;;;;;;;;;;;;;21.98;30.26;98089.66;4889984;29;1178;-79
2021/09/23 12:23:30;;;;;;;;;;;;;;;22.00;30.40;98101.34;4904869;29;1075;-79
2021/09/23 12:26:01;;;;;;;;;;;;;;;21.94;30.31;98100.28;4905068;29;1141;-80
2021/09/23 12:28:28;;;;;;;;;;;;;;;21.78;30.56;98101.91;4905154;29;1297;-79
2021/09/23 12:31:00;;;;;;;;;;;;;;;22.32;31.05;98104.09;4889284;29;1198;-79
2021/09/23 12:33:26;;;;;;;;;;;;;;;22.52;30.86;98106.00;4905109;29;1247;-79
2021/09/23 12:36:13;;;;;;;;;;;;;;;22.38;30.69;98097.88;4905064;29;1219;-79
2021/09/23 12:38:41;;;;;;;;;;;;;;;22.28;30.71;98105.47;4889731;29;1186;-79
2021/09/23 12:41:19;;;;;;;;;;;;;;;22.08;30.78;98111.25;4904607;29;1222;-80
2021/09/23 12:43:45;;;;;;;;;;;;;;;22.26;30.49;98116.44;4889393;29;1186;-79
2021/09/23 12:46:13;;;;;;;;;;;;;;;22.26;30.14;98117.25;4904980;29;1138;-79
2021/09/23 12:48:45;;;;;;;;;;;;;;;22.17;30.39;98114.25;4904753;29;1350;-79
2021/09/23 12:51:11;;;;;;;;;;;;;;;22.00;30.47;98121.16;4889578;29;1170;-79
2021/09/23 12:53:37;;;;;;;;;;;;;;;21.97;30.70;98127.75;4889223;29;1151;-79
2021/09/23 12:56:10;;;;;;;;;;;;;;;22.08;30.48;98117.72;4904374;29;1160;-80
2021/09/23 12:58:36;;;;;;;;;;;;;;;22.05;30.43;98134.78;4904693;29;1220;-79
2021/09/23 13:01:28;;;;;;;;;;;;;;;22.03;30.53;98131.63;4904890;29;1137;-79
2021/09/23 13:03:54;;;;;;;;;;;;;;;22.04;30.26;98127.53;4901958;29;1349;-79
2021/09/23 13:06:32;;;;;;;;;;;;;;;22.18;30.13;98127.19;4890794;29;1422;-79
2021/09/23 13:08:57;;;;;;;;;;;;;;;22.19;30.27;98123.13;4888719;29;1182;-80
2021/09/23 13:11:29;;;;;;;;;;;;;;;22.27;30.07;98118.81;4889387;29;1180;-79
2021/09/23 13:14:26;;;;;;;;;;;;;;;22.21;30.25;98122.66;4871164;29;1108;-79